Statsraad Lehmkuhl — LDRG — position and weather

sailwx.info

Track history (hours):
 
Tides and Currents Weather Stations Pressure Air Temp Water Temp Dewpoint Dewpoint Depression Visibility Wind Speed Wind Dir Waves Ship Positions

Statsraad Lehmkuhl (Norway)

Ship's website: http://www.lehmkuhl.no/eng/index.cfm

Last reported at 2017-Nov-17 23:25 UTC. Time now 2017-Nov-18 14:12 UTC.
Position N 36°56' W 075°52'.

Length 85 m; draft 5.2 m.

Type: Sailing vessel. MMSI: 258113000.

Date/timePositionNaut miles runAvg speedWind from/ knotsBaromVisibWave heightAir tempDewpointWater temp
2017-Nov-17 23:25N 36°56' W 075°52'4 8.8
2017-Nov-17 22:59N 36°56' W 075°57'5 9.5
2017-Nov-17 22:30N 36°57' W 076°02'5 9.9
2017-Nov-17 22:00N 36°59' W 076°08'610.2
2017-Nov-17 21:27N 37°00' W 076°15'4 9.9
2017-Nov-17 20:59N 36°58' W 076°20'4 8.9
2017-Nov-17 20:30N 36°54' W 076°20'4 7.5
2017-Nov-17 20:00N 36°51' W 076°18'0 0.1
2017-Nov-17 19:30N 36°51' W 076°18'0 0.0
2017-Nov-17 18:58N 36°51' W 076°18'0 0.0
2017-Nov-17 18:28N 36°51' W 076°18'0 0.0
2017-Nov-17 17:58N 36°51' W 076°18'0 0.0
2017-Nov-17 17:29N 36°51' W 076°18'0 0.0
2017-Nov-17 16:56N 36°51' W 076°18'0 0.0
2017-Nov-17 16:29N 36°51' W 076°18'0 0.0
2017-Nov-17 16:00N 36°51' W 076°18'0 0.0
2017-Nov-17 15:30N 36°51' W 076°18'0 0.0
2017-Nov-17 15:00N 36°51' W 076°18'0 0.0
2017-Nov-17 14:28N 36°51' W 076°18'0 0.0
2017-Nov-17 13:58N 36°51' W 076°18'0 0.0
2017-Nov-17 13:28N 36°51' W 076°18'0 0.0
2017-Nov-17 12:59N 36°51' W 076°18'0 0.0
2017-Nov-17 12:29N 36°51' W 076°18'0 0.0
2017-Nov-17 11:59N 36°51' W 076°18'0 0.0
2017-Nov-17 11:30N 36°51' W 076°18'0 0.0
2017-Nov-17 11:00N 36°51' W 076°18'0 0.0
2017-Nov-17 10:30N 36°51' W 076°18'0 0.0
2017-Nov-17 09:58N 36°51' W 076°18'0 0.0
2017-Nov-17 09:28N 36°51' W 076°18'0 0.0
2017-Nov-17 08:58N 36°51' W 076°18'0 0.0
2017-Nov-17 08:29N 36°51' W 076°18'0 0.0
2017-Nov-17 07:59N 36°51' W 076°18'0 0.0
2017-Nov-17 07:29N 36°51' W 076°18'0 0.0
2017-Nov-17 07:00N 36°51' W 076°18'0 0.0
2017-Nov-17 06:30N 36°51' W 076°18'0 0.0
2017-Nov-17 06:00N 36°51' W 076°18'0 0.0
2017-Nov-17 05:28N 36°51' W 076°18'0 0.0
2017-Nov-17 04:58N 36°51' W 076°18'0 0.0
2017-Nov-17 04:28N 36°51' W 076°18'0 0.0
2017-Nov-17 03:59N 36°51' W 076°18'0 0.0
2017-Nov-17 03:29N 36°51' W 076°18'0 0.0
2017-Nov-17 02:59N 36°51' W 076°18'0 0.0
2017-Nov-17 02:30N 36°51' W 076°18'0 0.0
2017-Nov-17 02:00N 36°51' W 076°18'0 0.0
2017-Nov-17 01:27N 36°51' W 076°18'0 0.0
2017-Nov-17 00:58N 36°51' W 076°18'0 0.0
2017-Nov-17 00:28N 36°51' W 076°18'0 0.0
2017-Nov-16 23:58N 36°51' W 076°18'0 0.0
2017-Nov-16 23:29N 36°51' W 076°18'0 0.0
2017-Nov-16 22:59N 36°51' W 076°18'0 0.0
2017-Nov-16 22:29N 36°51' W 076°18'0 0.0
2017-Nov-16 22:00N 36°51' W 076°18'0 0.0
2017-Nov-16 21:30N 36°51' W 076°18'0 0.0
2017-Nov-16 21:00N 36°51' W 076°18'0 0.0
2017-Nov-16 20:28N 36°51' W 076°18'0 0.0
2017-Nov-16 19:58N 36°51' W 076°18'0 0.0
2017-Nov-16 19:28N 36°51' W 076°18'0 0.0
2017-Nov-16 18:51N 36°51' W 076°18'0 0.0
2017-Nov-16 18:28N 36°51' W 076°18'0 0.0
2017-Nov-16 17:55N 36°51' W 076°18'0 0.0
2017-Nov-16 17:25N 36°51' W 076°18'0 0.0
2017-Nov-16 16:56N 36°51' W 076°18'0 0.0
2017-Nov-16 16:26N 36°51' W 076°18'0 0.0
2017-Nov-16 15:56N 36°51' W 076°18'0 0.0
2017-Nov-16 15:30N 36°51' W 076°18'0 0.0
2017-Nov-16 15:00N 36°51' W 076°18'0 0.0
2017-Nov-16 14:30N 36°51' W 076°18'0 0.0
2017-Nov-16 13:58N 36°51' W 076°18'0 0.0
2017-Nov-16 13:28N 36°51' W 076°18'0 0.0
2017-Nov-16 12:58N 36°51' W 076°18'0 0.0
2017-Nov-16 12:29N 36°51' W 076°18'0 0.0
2017-Nov-16 11:59N 36°51' W 076°18'0 0.0
2017-Nov-16 11:29N 36°51' W 076°18'0 0.0
2017-Nov-16 11:00N 36°51' W 076°18'0 0.0
2017-Nov-16 10:30N 36°51' W 076°18'0 0.0
2017-Nov-16 10:00N 36°51' W 076°18'0 0.0
2017-Nov-16 09:28N 36°51' W 076°18'0 0.0
2017-Nov-16 08:58N 36°51' W 076°18'0 0.0
2017-Nov-16 08:28N 36°51' W 076°18'0 0.0
2017-Nov-16 07:59N 36°51' W 076°18'0 0.0
2017-Nov-16 07:29N 36°51' W 076°18'0 0.0
2017-Nov-16 06:59N 36°51' W 076°18'0 0.0
2017-Nov-16 06:30N 36°51' W 076°18'0 0.0
2017-Nov-16 06:00N 36°51' W 076°18'0 0.0
2017-Nov-16 05:30N 36°51' W 076°18'0 0.0
2017-Nov-16 04:58N 36°51' W 076°18'0 0.0
2017-Nov-16 04:28N 36°51' W 076°18'0 0.0
2017-Nov-16 03:55N 36°51' W 076°18'0 0.0
2017-Nov-16 03:29N 36°51' W 076°18'0 0.0
2017-Nov-16 02:59N 36°51' W 076°18'0 0.0
2017-Nov-16 02:29N 36°51' W 076°18'0 0.0
2017-Nov-16 02:00N 36°51' W 076°18'0 0.0
2017-Nov-16 01:30N 36°51' W 076°18'0 0.0
2017-Nov-16 01:00N 36°51' W 076°18'0 0.0
2017-Nov-16 00:28N 36°51' W 076°18'0 0.0
2017-Nov-15 23:58N 36°51' W 076°18'0 0.0
2017-Nov-15 23:28N 36°51' W 076°18'0 0.0
2017-Nov-15 22:59N 36°51' W 076°18'0 0.0
2017-Nov-15 22:29N 36°51' W 076°18'0 0.0
2017-Nov-15 21:59N 36°51' W 076°18'0 0.0
2017-Nov-15 21:30N 36°51' W 076°18'0 0.0
2017-Nov-15 21:00N 36°51' W 076°18'0 0.0
2017-Nov-15 20:30N 36°51' W 076°18'0 0.0
2017-Nov-15 19:58N 36°51' W 076°18'0 0.0
2017-Nov-15 19:28N 36°51' W 076°18'0 0.0
2017-Nov-15 18:58N 36°51' W 076°18'0 0.0
2017-Nov-15 18:29N 36°51' W 076°18'0 0.0
2017-Nov-15 17:59N 36°51' W 076°18'0 0.0
2017-Nov-15 17:29N 36°51' W 076°18'0 0.0
2017-Nov-15 17:00N 36°51' W 076°18'0 0.0
2017-Nov-15 16:30N 36°51' W 076°18'0 0.0
2017-Nov-15 16:00N 36°51' W 076°18'0 0.0
2017-Nov-15 15:28N 36°51' W 076°18'0 0.0
2017-Nov-15 14:55N 36°51' W 076°18'0 0.0
2017-Nov-15 14:28N 36°51' W 076°18'0 0.0
2017-Nov-15 13:59N 36°51' W 076°18'0 0.0
2017-Nov-15 13:29N 36°51' W 076°18'0 0.0
2017-Nov-15 12:59N 36°51' W 076°18'0 0.0
2017-Nov-15 12:30N 36°51' W 076°18'0 0.0
2017-Nov-15 12:00N 36°51' W 076°18'0 0.0
2017-Nov-15 11:30N 36°51' W 076°18'0 0.0
2017-Nov-15 10:58N 36°51' W 076°18'0 0.0
2017-Nov-15 10:28N 36°51' W 076°18'0 0.0
2017-Nov-15 09:58N 36°51' W 076°18'0 0.0
2017-Nov-15 09:29N 36°51' W 076°18'0 0.0
2017-Nov-15 08:59N 36°51' W 076°18'0 0.0
2017-Nov-15 08:29N 36°51' W 076°18'0 0.0
2017-Nov-15 08:00N 36°51' W 076°18'0 0.0
2017-Nov-15 07:30N 36°51' W 076°18'0 0.0
2017-Nov-15 07:00N 36°51' W 076°18'0 0.0
2017-Nov-15 06:28N 36°51' W 076°18'0 0.0
2017-Nov-15 05:58N 36°51' W 076°18'0 0.0
2017-Nov-15 05:28N 36°51' W 076°18'0 0.0
2017-Nov-15 04:59N 36°51' W 076°18'0 0.0
2017-Nov-15 04:29N 36°51' W 076°18'0 0.0
2017-Nov-15 03:59N 36°51' W 076°18'0 0.0
2017-Nov-15 03:30N 36°51' W 076°18'0 0.0
2017-Nov-15 03:00N 36°51' W 076°18'0 0.0
2017-Nov-15 02:30N 36°51' W 076°18'0 0.0
2017-Nov-15 01:58N 36°51' W 076°18'0 0.0
2017-Nov-15 01:28N 36°51' W 076°18'0 0.0
2017-Nov-15 00:58N 36°51' W 076°18'0 0.0
2017-Nov-15 00:29N 36°51' W 076°18'0 0.0
2017-Nov-14 23:59N 36°51' W 076°18'0 0.0
2017-Nov-14 23:29N 36°51' W 076°18'0 0.0
2017-Nov-14 23:00N 36°51' W 076°18'0 0.0
2017-Nov-14 22:27N 36°51' W 076°18'0 0.0
2017-Nov-14 22:00N 36°51' W 076°18'0 0.0
2017-Nov-14 21:28N 36°51' W 076°18'0 0.0
2017-Nov-14 20:58N 36°51' W 076°18'0 0.0
2017-Nov-14 20:28N 36°51' W 076°18'0 0.0
2017-Nov-14 19:59N 36°51' W 076°18'0 0.0
2017-Nov-14 19:29N 36°51' W 076°18'0 0.0
2017-Nov-14 18:59N 36°51' W 076°18'0 0.0
2017-Nov-14 18:30N 36°51' W 076°18'0 0.0
2017-Nov-14 18:00N 36°51' W 076°18'0 0.0
2017-Nov-14 17:30N 36°51' W 076°18'0 0.0
2017-Nov-14 16:58N 36°51' W 076°18'0 0.0
2017-Nov-14 16:28N 36°51' W 076°18'0 0.0
2017-Nov-14 15:52N 36°51' W 076°18'0 0.0
2017-Nov-14 15:29N 36°51' W 076°18'0 0.0
2017-Nov-14 14:59N 36°51' W 076°18'0 0.0
2017-Nov-14 14:29N 36°51' W 076°18'0 0.0
2017-Nov-14 14:00N 36°51' W 076°18'0 0.0
2017-Nov-14 13:30N 36°51' W 076°18'0 0.0
2017-Nov-14 13:00N 36°51' W 076°18'0 0.0
2017-Nov-14 12:28N 36°51' W 076°18'0 0.0
2017-Nov-14 11:58N 36°51' W 076°18'0 0.0
2017-Nov-14 11:28N 36°51' W 076°18'0 0.0
2017-Nov-14 10:59N 36°51' W 076°18'0 0.0
2017-Nov-14 10:29N 36°51' W 076°18'0 0.0
2017-Nov-14 09:59N 36°51' W 076°18'0 0.0
2017-Nov-14 09:30N 36°51' W 076°18'0 0.0
2017-Nov-14 09:00N 36°51' W 076°18'0 0.0
2017-Nov-14 08:30N 36°51' W 076°18'0 0.0
2017-Nov-14 07:58N 36°51' W 076°18'0 0.0
2017-Nov-14 07:28N 36°51' W 076°18'0 0.0
2017-Nov-14 06:58N 36°51' W 076°18'0 0.0
2017-Nov-14 06:29N 36°51' W 076°18'0 0.0
2017-Nov-14 05:59N 36°51' W 076°18'0 0.0
2017-Nov-14 05:29N 36°51' W 076°18'0 0.0
2017-Nov-14 05:00N 36°51' W 076°18'0 0.0
2017-Nov-14 04:30N 36°51' W 076°18'0 0.0
2017-Nov-14 04:00N 36°51' W 076°18'0 0.0
2017-Nov-14 03:28N 36°51' W 076°18'0 0.0
2017-Nov-14 02:58N 36°51' W 076°18'0 0.0
2017-Nov-14 02:28N 36°51' W 076°18'0 0.0
2017-Nov-14 01:59N 36°51' W 076°18'0 0.0
2017-Nov-14 01:29N 36°51' W 076°18'0 0.0
2017-Nov-14 00:59N 36°51' W 076°18'0 0.0
2017-Nov-14 00:30N 36°51' W 076°18'0 0.0
2017-Nov-14 00:00N 36°51' W 076°18'0 0.0
2017-Nov-13 23:30N 36°51' W 076°18'0 0.0
2017-Nov-13 22:58N 36°51' W 076°18'0 0.0
2017-Nov-13 22:28N 36°51' W 076°18'0 0.0
2017-Nov-13 21:58N 36°51' W 076°18'0 0.0
2017-Nov-13 01:57N 36°51' W 076°18'0 0.0
2017-Nov-13 01:27N 36°51' W 076°18'0 0.0
2017-Nov-13 01:00N 36°51' W 076°18'0 0.0
2017-Nov-13 00:28N 36°51' W 076°18'0 0.0
2017-Nov-12 23:58N 36°51' W 076°18'0 0.0
2017-Nov-12 23:28N 36°51' W 076°18'0 0.0
2017-Nov-12 22:53N 36°51' W 076°18'0 0.0
2017-Nov-12 22:29N 36°51' W 076°18'0 0.0
2017-Nov-12 21:59N 36°51' W 076°18'0 0.0
2017-Nov-12 21:30N 36°51' W 076°18'0 0.0
2017-Nov-12 21:00N 36°51' W 076°18'0 0.0
2017-Nov-12 20:06N 36°51' W 076°18'0 0.1
2017-Nov-12 20:00N 36°51' W 076°18'0 0.0
2017-Nov-12 19:25N 36°51' W 076°18'0 0.0
2017-Nov-12 18:58N 36°51' W 076°18'0 0.0
2017-Nov-12 18:29N 36°51' W 076°18'0 0.0
2017-Nov-12 17:59N 36°51' W 076°18'0 0.0
2017-Nov-12 17:26N 36°51' W 076°18'0 0.0
2017-Nov-12 16:48N 36°51' W 076°18'0 0.0
2017-Nov-12 16:24N 36°51' W 076°18'0 0.0
2017-Nov-12 15:54N 36°51' W 076°18'0 0.0
2017-Nov-12 15:30N 36°51' W 076°18'0 0.0
2017-Nov-12 14:58N 36°51' W 076°18'0 0.0
2017-Nov-12 14:28N 36°51' W 076°18'0 0.0
2017-Nov-12 13:56N 36°51' W 076°18'0 0.0
2017-Nov-12 13:26N 36°51' W 076°18'0 0.0
2017-Nov-12 12:56N 36°51' W 076°18'0 0.0
2017-Nov-12 12:27N 36°51' W 076°18'0 0.0
2017-Nov-12 12:00N 36°51' W 076°18'0 0.0
2017-Nov-12 11:27N 36°51' W 076°18'0 0.0
2017-Nov-12 10:57N 36°51' W 076°18'0 0.0
2017-Nov-12 10:28N 36°51' W 076°18'0 0.0
2017-Nov-12 09:58N 36°51' W 076°18'0 0.0
2017-Nov-12 09:28N 36°51' W 076°18'0 0.0
2017-Nov-12 08:59N 36°51' W 076°18'0 0.0
2017-Nov-12 08:29N 36°51' W 076°18'0 0.0
2017-Nov-12 07:59N 36°51' W 076°18'0 0.0
2017-Nov-12 07:24N 36°51' W 076°18'0 0.0
2017-Nov-12 07:00N 36°51' W 076°18'0 0.0
2017-Nov-12 06:25N 36°51' W 076°18'0 0.0
2017-Nov-12 05:58N 36°51' W 076°18'0 0.0
2017-Nov-12 05:22N 36°51' W 076°18'0 0.0
2017-Nov-12 04:50N 36°51' W 076°18'0 0.0
2017-Nov-12 04:26N 36°51' W 076°18'0 0.0
2017-Nov-12 03:56N 36°51' W 076°18'0 0.0
2017-Nov-12 03:21N 36°51' W 076°18'0 0.0
2017-Nov-12 02:45N 36°51' W 076°18'0 0.0
2017-Nov-12 02:27N 36°51' W 076°18'0 0.0
2017-Nov-12 01:57N 36°51' W 076°18'0 0.0
2017-Nov-12 01:28N 36°51' W 076°18'0 0.0
2017-Nov-12 00:58N 36°51' W 076°18'0 0.0
2017-Nov-12 00:28N 36°51' W 076°18'0 0.0
2017-Nov-11 23:59N 36°51' W 076°18'0 0.0
2017-Nov-11 23:29N 36°51' W 076°18'0 0.0
2017-Nov-11 22:59N 36°51' W 076°18'0 0.0
2017-Nov-11 22:30N 36°51' W 076°18'0 0.0
2017-Nov-11 21:54N 36°51' W 076°18'0 0.0
2017-Nov-11 21:30N 36°51' W 076°18'0 0.0
2017-Nov-11 20:58N 36°51' W 076°18'0 0.0
2017-Nov-11 20:28N 36°51' W 076°18'0 0.0
2017-Nov-11 19:55N 36°51' W 076°18'0 0.0
2017-Nov-11 19:11N 36°51' W 076°18'0 0.0
2017-Nov-11 18:59N 36°51' W 076°18'0 0.0
2017-Nov-11 18:29N 36°51' W 076°18'0 0.0
2017-Nov-11 18:00N 36°51' W 076°18'0 0.0
2017-Nov-11 17:30N 36°51' W 076°18'0 0.0
2017-Nov-11 17:00N 36°51' W 076°18'0 0.0
2017-Nov-11 16:22N 36°51' W 076°18'0 0.0
2017-Nov-11 15:49N 36°51' W 076°18'0 0.0
2017-Nov-11 15:28N 36°51' W 076°18'0 0.0
2017-Nov-11 14:53N 36°51' W 076°18'0 0.0
2017-Nov-11 14:26N 36°51' W 076°18'0 0.0
2017-Nov-11 13:59N 36°51' W 076°18'0 0.0
2017-Nov-11 13:30N 36°51' W 076°18'0 0.0
2017-Nov-11 12:57N 36°51' W 076°18'0 0.0
2017-Nov-11 12:30N 36°51' W 076°18'0 0.0
2017-Nov-11 11:52N 36°51' W 076°18'0 0.0
2017-Nov-11 11:28N 36°51' W 076°18'0 0.0
2017-Nov-11 10:58N 36°51' W 076°18'0 0.0
2017-Nov-11 10:29N 36°51' W 076°18'0 0.0
2017-Nov-11 09:59N 36°51' W 076°18'0 0.0
2017-Nov-11 09:29N 36°51' W 076°18'0 0.0
2017-Nov-11 09:00N 36°51' W 076°18'0 0.0
2017-Nov-11 08:30N 36°51' W 076°18'0 0.0
2017-Nov-11 08:00N 36°51' W 076°18'0 0.0
2017-Nov-11 07:28N 36°51' W 076°18'0 0.0
2017-Nov-11 06:58N 36°51' W 076°18'0 0.0
2017-Nov-11 06:25N 36°51' W 076°18'0 0.0
2017-Nov-11 05:59N 36°51' W 076°18'0 0.0
2017-Nov-11 05:29N 36°51' W 076°18'0 0.0
2017-Nov-11 04:59N 36°51' W 076°18'0 0.0
2017-Nov-11 04:30N 36°51' W 076°18'0 0.0
2017-Nov-11 04:00N 36°51' W 076°18'0 0.0
2017-Nov-11 03:30N 36°51' W 076°18'0 0.0
2017-Nov-11 02:58N 36°51' W 076°18'0 0.0
2017-Nov-11 02:28N 36°51' W 076°18'0 0.0
2017-Nov-11 01:58N 36°51' W 076°18'0 0.0
2017-Nov-11 01:29N 36°51' W 076°18'0 0.0
2017-Nov-11 00:59N 36°51' W 076°18'0 0.0
2017-Nov-11 00:29N 36°51' W 076°18'0 0.0
2017-Nov-11 00:00N 36°51' W 076°18'0 0.0
2017-Nov-10 23:30N 36°51' W 076°18'0 0.0
2017-Nov-10 22:57N 36°51' W 076°18'0 0.0
2017-Nov-10 22:16N 36°51' W 076°18'0 0.0
2017-Nov-10 21:58N 36°51' W 076°18'0 0.0
2017-Nov-10 21:28N 36°51' W 076°18'0 0.0
2017-Nov-10 20:59N 36°51' W 076°18'0 0.0
2017-Nov-10 20:29N 36°51' W 076°18'0 0.0
2017-Nov-10 19:59N 36°51' W 076°18'0 0.0
2017-Nov-10 19:30N 36°51' W 076°18'0 0.0
2017-Nov-10 19:00N 36°51' W 076°18'0 0.0
2017-Nov-10 18:30N 36°51' W 076°18'0 0.0
2017-Nov-10 17:58N 36°51' W 076°18'0 0.0
2017-Nov-10 17:28N 36°51' W 076°18'0 0.0
2017-Nov-10 16:58N 36°51' W 076°18'0 0.0
2017-Nov-10 16:29N 36°51' W 076°18'0 0.0
2017-Nov-10 15:59N 36°51' W 076°18'0 0.0
2017-Nov-10 15:29N 36°51' W 076°18'0 0.0
2017-Nov-10 15:00N 36°51' W 076°18'0 0.0
2017-Nov-10 14:30N 36°51' W 076°18'0 0.1
2017-Nov-10 14:00N 36°51' W 076°18'0 0.1
2017-Nov-10 13:28N 36°51' W 076°18'0 0.0
2017-Nov-10 12:58N 36°51' W 076°18'0 0.0
2017-Nov-10 12:28N 36°51' W 076°18'0 0.0
2017-Nov-10 11:59N 36°51' W 076°18'0 0.0
2017-Nov-10 11:26N 36°51' W 076°18'0 0.0
2017-Nov-10 10:59N 36°51' W 076°18'0 0.0
2017-Nov-10 10:30N 36°51' W 076°18'0 0.0
2017-Nov-10 10:00N 36°51' W 076°18'0 0.0
2017-Nov-10 09:30N 36°51' W 076°18'0 0.0
2017-Nov-10 08:58N 36°51' W 076°18'0 0.0
2017-Nov-10 08:28N 36°51' W 076°18'0 0.0
2017-Nov-10 07:58N 36°51' W 076°18'0 0.0
2017-Nov-10 07:29N 36°51' W 076°18'0 0.0
2017-Nov-10 06:53N 36°51' W 076°18'0 0.0
2017-Nov-10 06:29N 36°51' W 076°18'0 0.0
2017-Nov-10 06:00N 36°51' W 076°18'0 0.0
2017-Nov-10 05:30N 36°51' W 076°18'0 0.0
2017-Nov-10 05:00N 36°51' W 076°18'0 0.0
2017-Nov-10 04:28N 36°51' W 076°18'0 0.0
2017-Nov-10 03:58N 36°51' W 076°18'0 0.0
2017-Nov-10 03:28N 36°51' W 076°18'0 0.0
2017-Nov-10 02:59N 36°51' W 076°18'0 0.0
2017-Nov-10 02:29N 36°51' W 076°18'0 0.0
2017-Nov-10 01:59N 36°51' W 076°18'0 0.0
2017-Nov-10 01:30N 36°51' W 076°18'0 0.0
2017-Nov-10 01:00N 36°51' W 076°18'0 0.0
2017-Nov-10 00:30N 36°51' W 076°18'0 0.0
2017-Nov-09 23:58N 36°51' W 076°18'0 0.0
2017-Nov-09 23:28N 36°51' W 076°18'0 0.0
2017-Nov-09 22:56N 36°51' W 076°18'0 0.0
2017-Nov-09 22:29N 36°51' W 076°18'0 0.0
2017-Nov-09 21:59N 36°51' W 076°18'0 0.0
2017-Nov-09 21:26N 36°51' W 076°18'0 0.0
2017-Nov-09 21:00N 36°51' W 076°18'0 0.0
2017-Nov-09 20:30N 36°51' W 076°18'0 0.0
2017-Nov-09 20:00N 36°51' W 076°18'0 0.0
2017-Nov-09 19:25N 36°51' W 076°18'0 0.0
2017-Nov-09 18:55N 36°51' W 076°18'0 0.0
2017-Nov-09 18:20N 36°51' W 076°18'0 0.0
2017-Nov-09 17:59N 36°51' W 076°18'0 0.0
2017-Nov-09 16:50N 36°51' W 076°18'0 0.0
2017-Nov-09 16:27N 36°51' W 076°18'0 0.0
2017-Nov-09 15:57N 36°51' W 076°18'0 0.0
2017-Nov-09 15:27N 36°51' W 076°18'0 0.1
2017-Nov-09 15:00N 36°51' W 076°18'0 0.9
2017-Nov-09 14:30N 36°51' W 076°18'2 4.9
2017-Nov-09 14:00N 36°53' W 076°20'3 6.8
2017-Nov-09 13:30N 36°56' W 076°20'3 5.2
2017-Nov-09 13:00N 36°56' W 076°24'0 0.0
2017-Nov-09 03:50N 36°56' W 076°24'0 0.0
2017-Nov-09 03:29N 36°56' W 076°24'0 0.0
2017-Nov-09 02:57N 36°56' W 076°24'0 0.0
2017-Nov-09 02:30N 36°56' W 076°24'0 0.0
2017-Nov-09 02:00N 36°56' W 076°24'0 0.0
2017-Nov-09 01:28N 36°56' W 076°24'0 0.0
2017-Nov-09 00:58N 36°56' W 076°24'0 0.1
2017-Nov-09 00:28N 36°56' W 076°24'0 0.0
2017-Nov-08 23:59N 36°56' W 076°24'0 0.0
2017-Nov-08 23:29N 36°56' W 076°24'0 0.0
2017-Nov-08 22:59N 36°56' W 076°24'0 0.0
2017-Nov-08 22:30N 36°56' W 076°24'0 0.0
2017-Nov-08 22:00N 36°56' W 076°24'0 0.0
2017-Nov-08 21:30N 36°56' W 076°24'0 0.1
2017-Nov-08 20:58N 36°56' W 076°24'0 0.0
2017-Nov-08 20:25N 36°56' W 076°24'0 0.0
2017-Nov-08 19:55N 36°56' W 076°24'0 0.0
2017-Nov-08 19:20N 36°56' W 076°24'0 0.0
2017-Nov-08 18:59N 36°56' W 076°24'0 0.0
2017-Nov-08 18:29N 36°56' W 076°24'0 0.0
2017-Nov-08 18:00N 36°56' W 076°24'0 0.0
2017-Nov-08 16:22N 36°56' W 076°24'0 0.0
2017-Nov-08 15:58N 36°56' W 076°24'0 0.0
2017-Nov-08 15:28N 36°56' W 076°24'0 0.0
2017-Nov-08 14:59N 36°56' W 076°24'0 0.0
2017-Nov-08 14:29N 36°56' W 076°24'0 0.0
2017-Nov-08 13:56N 36°56' W 076°24'0 0.1
2017-Nov-08 13:30N 36°56' W 076°24'0 0.0
2017-Nov-08 05:56N 36°56' W 076°24'0 0.0
2017-Nov-08 05:29N 36°56' W 076°24'0 0.0
2017-Nov-08 04:59N 36°56' W 076°24'0 0.0
2017-Nov-08 04:30N 36°56' W 076°24'0 0.0
2017-Nov-08 04:00N 36°56' W 076°24'0 0.0
2017-Nov-08 03:30N 36°56' W 076°24'0 0.0
2017-Nov-08 03:00N 36°56' W 076°24'0 0.0
2017-Nov-08 02:25N 36°56' W 076°24'0 0.1
2017-Nov-08 01:58N 36°56' W 076°24'0 0.0
2017-Nov-08 01:26N 36°56' W 076°24'0 0.0
2017-Nov-08 00:59N 36°56' W 076°24'0 0.0
2017-Nov-08 00:29N 36°56' W 076°24'0 0.0
2017-Nov-07 23:59N 36°56' W 076°24'0 0.0
2017-Nov-07 23:30N 36°56' W 076°24'  
Track history (hours):
 
Tides and Currents Weather Stations Pressure Air Temp Water Temp Dewpoint Dewpoint Depression Visibility Wind Speed Wind Dir Waves Ship Positions

Statsraad Lehmkuhl (Norway)

Ship's website: http://www.lehmkuhl.no/eng/index.cfm

Last reported at 2017-Nov-17 23:25 UTC. Time now 2017-Nov-18 14:12 UTC.
Position N 36°56' W 075°52'.

Length 85 m; draft 5.2 m.

Type: Sailing vessel. MMSI: 258113000.

Date/timePositionNaut miles runAvg speedWind from/ knotsBaromVisibWave heightAir tempDewpointWater temp
2017-Nov-17 23:25N 36°56' W 075°52'4 8.8
2017-Nov-17 22:59N 36°56' W 075°57'5 9.5
2017-Nov-17 22:30N 36°57' W 076°02'5 9.9
2017-Nov-17 22:00N 36°59' W 076°08'610.2
2017-Nov-17 21:27N 37°00' W 076°15'4 9.9
2017-Nov-17 20:59N 36°58' W 076°20'4 8.9
2017-Nov-17 20:30N 36°54' W 076°20'4 7.5
2017-Nov-17 20:00N 36°51' W 076°18'0 0.1
2017-Nov-17 19:30N 36°51' W 076°18'0 0.0
2017-Nov-17 18:58N 36°51' W 076°18'0 0.0
2017-Nov-17 18:28N 36°51' W 076°18'0 0.0
2017-Nov-17 17:58N 36°51' W 076°18'0 0.0
2017-Nov-17 17:29N 36°51' W 076°18'0 0.0
2017-Nov-17 16:56N 36°51' W 076°18'0 0.0
2017-Nov-17 16:29N 36°51' W 076°18'0 0.0
2017-Nov-17 16:00N 36°51' W 076°18'0 0.0
2017-Nov-17 15:30N 36°51' W 076°18'0 0.0
2017-Nov-17 15:00N 36°51' W 076°18'0 0.0
2017-Nov-17 14:28N 36°51' W 076°18'0 0.0
2017-Nov-17 13:58N 36°51' W 076°18'0 0.0
2017-Nov-17 13:28N 36°51' W 076°18'0 0.0
2017-Nov-17 12:59N 36°51' W 076°18'0 0.0
2017-Nov-17 12:29N 36°51' W 076°18'0 0.0
2017-Nov-17 11:59N 36°51' W 076°18'0 0.0
2017-Nov-17 11:30N 36°51' W 076°18'0 0.0
2017-Nov-17 11:00N 36°51' W 076°18'0 0.0
2017-Nov-17 10:30N 36°51' W 076°18'0 0.0
2017-Nov-17 09:58N 36°51' W 076°18'0 0.0
2017-Nov-17 09:28N 36°51' W 076°18'0 0.0
2017-Nov-17 08:58N 36°51' W 076°18'0 0.0
2017-Nov-17 08:29N 36°51' W 076°18'0 0.0
2017-Nov-17 07:59N 36°51' W 076°18'0 0.0
2017-Nov-17 07:29N 36°51' W 076°18'0 0.0
2017-Nov-17 07:00N 36°51' W 076°18'0 0.0
2017-Nov-17 06:30N 36°51' W 076°18'0 0.0
2017-Nov-17 06:00N 36°51' W 076°18'0 0.0
2017-Nov-17 05:28N 36°51' W 076°18'0 0.0
2017-Nov-17 04:58N 36°51' W 076°18'0 0.0
2017-Nov-17 04:28N 36°51' W 076°18'0 0.0
2017-Nov-17 03:59N 36°51' W 076°18'0 0.0
2017-Nov-17 03:29N 36°51' W 076°18'0 0.0
2017-Nov-17 02:59N 36°51' W 076°18'0 0.0
2017-Nov-17 02:30N 36°51' W 076°18'0 0.0
2017-Nov-17 02:00N 36°51' W 076°18'0 0.0
2017-Nov-17 01:27N 36°51' W 076°18'0 0.0
2017-Nov-17 00:58N 36°51' W 076°18'0 0.0
2017-Nov-17 00:28N 36°51' W 076°18'0 0.0
2017-Nov-16 23:58N 36°51' W 076°18'0 0.0
2017-Nov-16 23:29N 36°51' W 076°18'0 0.0
2017-Nov-16 22:59N 36°51' W 076°18'0 0.0
2017-Nov-16 22:29N 36°51' W 076°18'0 0.0
2017-Nov-16 22:00N 36°51' W 076°18'0 0.0
2017-Nov-16 21:30N 36°51' W 076°18'0 0.0
2017-Nov-16 21:00N 36°51' W 076°18'0 0.0
2017-Nov-16 20:28N 36°51' W 076°18'0 0.0
2017-Nov-16 19:58N 36°51' W 076°18'0 0.0
2017-Nov-16 19:28N 36°51' W 076°18'0 0.0
2017-Nov-16 18:51N 36°51' W 076°18'0 0.0
2017-Nov-16 18:28N 36°51' W 076°18'0 0.0
2017-Nov-16 17:55N 36°51' W 076°18'0 0.0
2017-Nov-16 17:25N 36°51' W 076°18'0 0.0
2017-Nov-16 16:56N 36°51' W 076°18'0 0.0
2017-Nov-16 16:26N 36°51' W 076°18'0 0.0
2017-Nov-16 15:56N 36°51' W 076°18'0 0.0
2017-Nov-16 15:30N 36°51' W 076°18'0 0.0
2017-Nov-16 15:00N 36°51' W 076°18'0 0.0
2017-Nov-16 14:30N 36°51' W 076°18'0 0.0
2017-Nov-16 13:58N 36°51' W 076°18'0 0.0
2017-Nov-16 13:28N 36°51' W 076°18'0 0.0
2017-Nov-16 12:58N 36°51' W 076°18'0 0.0
2017-Nov-16 12:29N 36°51' W 076°18'0 0.0
2017-Nov-16 11:59N 36°51' W 076°18'0 0.0
2017-Nov-16 11:29N 36°51' W 076°18'0 0.0
2017-Nov-16 11:00N 36°51' W 076°18'0 0.0
2017-Nov-16 10:30N 36°51' W 076°18'0 0.0
2017-Nov-16 10:00N 36°51' W 076°18'0 0.0
2017-Nov-16 09:28N 36°51' W 076°18'0 0.0
2017-Nov-16 08:58N 36°51' W 076°18'0 0.0
2017-Nov-16 08:28N 36°51' W 076°18'0 0.0
2017-Nov-16 07:59N 36°51' W 076°18'0 0.0
2017-Nov-16 07:29N 36°51' W 076°18'0 0.0
2017-Nov-16 06:59N 36°51' W 076°18'0 0.0
2017-Nov-16 06:30N 36°51' W 076°18'0 0.0
2017-Nov-16 06:00N 36°51' W 076°18'0 0.0
2017-Nov-16 05:30N 36°51' W 076°18'0 0.0
2017-Nov-16 04:58N 36°51' W 076°18'0 0.0
2017-Nov-16 04:28N 36°51' W 076°18'0 0.0
2017-Nov-16 03:55N 36°51' W 076°18'0 0.0
2017-Nov-16 03:29N 36°51' W 076°18'0 0.0
2017-Nov-16 02:59N 36°51' W 076°18'0 0.0
2017-Nov-16 02:29N 36°51' W 076°18'0 0.0
2017-Nov-16 02:00N 36°51' W 076°18'0 0.0
2017-Nov-16 01:30N 36°51' W 076°18'0 0.0
2017-Nov-16 01:00N 36°51' W 076°18'0 0.0
2017-Nov-16 00:28N 36°51' W 076°18'0 0.0
2017-Nov-15 23:58N 36°51' W 076°18'0 0.0
2017-Nov-15 23:28N 36°51' W 076°18'0 0.0
2017-Nov-15 22:59N 36°51' W 076°18'0 0.0
2017-Nov-15 22:29N 36°51' W 076°18'0 0.0
2017-Nov-15 21:59N 36°51' W 076°18'0 0.0
2017-Nov-15 21:30N 36°51' W 076°18'0 0.0
2017-Nov-15 21:00N 36°51' W 076°18'0 0.0
2017-Nov-15 20:30N 36°51' W 076°18'0 0.0
2017-Nov-15 19:58N 36°51' W 076°18'0 0.0
2017-Nov-15 19:28N 36°51' W 076°18'0 0.0
2017-Nov-15 18:58N 36°51' W 076°18'0 0.0
2017-Nov-15 18:29N 36°51' W 076°18'0 0.0
2017-Nov-15 17:59N 36°51' W 076°18'0 0.0
2017-Nov-15 17:29N 36°51' W 076°18'0 0.0
2017-Nov-15 17:00N 36°51' W 076°18'0 0.0
2017-Nov-15 16:30N 36°51' W 076°18'0 0.0
2017-Nov-15 16:00N 36°51' W 076°18'0 0.0
2017-Nov-15 15:28N 36°51' W 076°18'0 0.0
2017-Nov-15 14:55N 36°51' W 076°18'0 0.0
2017-Nov-15 14:28N 36°51' W 076°18'0 0.0
2017-Nov-15 13:59N 36°51' W 076°18'0 0.0
2017-Nov-15 13:29N 36°51' W 076°18'0 0.0
2017-Nov-15 12:59N 36°51' W 076°18'0 0.0
2017-Nov-15 12:30N 36°51' W 076°18'0 0.0
2017-Nov-15 12:00N 36°51' W 076°18'0 0.0
2017-Nov-15 11:30N 36°51' W 076°18'0 0.0
2017-Nov-15 10:58N 36°51' W 076°18'0 0.0
2017-Nov-15 10:28N 36°51' W 076°18'0 0.0
2017-Nov-15 09:58N 36°51' W 076°18'0 0.0
2017-Nov-15 09:29N 36°51' W 076°18'0 0.0
2017-Nov-15 08:59N 36°51' W 076°18'0 0.0
2017-Nov-15 08:29N 36°51' W 076°18'0 0.0
2017-Nov-15 08:00N 36°51' W 076°18'0 0.0
2017-Nov-15 07:30N 36°51' W 076°18'0 0.0
2017-Nov-15 07:00N 36°51' W 076°18'0 0.0
2017-Nov-15 06:28N 36°51' W 076°18'0 0.0
2017-Nov-15 05:58N 36°51' W 076°18'0 0.0
2017-Nov-15 05:28N 36°51' W 076°18'0 0.0
2017-Nov-15 04:59N 36°51' W 076°18'0 0.0
2017-Nov-15 04:29N 36°51' W 076°18'0 0.0
2017-Nov-15 03:59N 36°51' W 076°18'0 0.0
2017-Nov-15 03:30N 36°51' W 076°18'0 0.0
2017-Nov-15 03:00N 36°51' W 076°18'0 0.0
2017-Nov-15 02:30N 36°51' W 076°18'0 0.0
2017-Nov-15 01:58N 36°51' W 076°18'0 0.0
2017-Nov-15 01:28N 36°51' W 076°18'0 0.0
2017-Nov-15 00:58N 36°51' W 076°18'0 0.0
2017-Nov-15 00:29N 36°51' W 076°18'0 0.0
2017-Nov-14 23:59N 36°51' W 076°18'0 0.0
2017-Nov-14 23:29N 36°51' W 076°18'0 0.0
2017-Nov-14 23:00N 36°51' W 076°18'0 0.0
2017-Nov-14 22:27N 36°51' W 076°18'0 0.0
2017-Nov-14 22:00N 36°51' W 076°18'0 0.0
2017-Nov-14 21:28N 36°51' W 076°18'0 0.0
2017-Nov-14 20:58N 36°51' W 076°18'0 0.0
2017-Nov-14 20:28N 36°51' W 076°18'0 0.0
2017-Nov-14 19:59N 36°51' W 076°18'0 0.0
2017-Nov-14 19:29N 36°51' W 076°18'0 0.0
2017-Nov-14 18:59N 36°51' W 076°18'0 0.0
2017-Nov-14 18:30N 36°51' W 076°18'0 0.0
2017-Nov-14 18:00N 36°51' W 076°18'0 0.0
2017-Nov-14 17:30N 36°51' W 076°18'0 0.0
2017-Nov-14 16:58N 36°51' W 076°18'0 0.0
2017-Nov-14 16:28N 36°51' W 076°18'0 0.0
2017-Nov-14 15:52N 36°51' W 076°18'0 0.0
2017-Nov-14 15:29N 36°51' W 076°18'0 0.0
2017-Nov-14 14:59N 36°51' W 076°18'0 0.0
2017-Nov-14 14:29N 36°51' W 076°18'0 0.0
2017-Nov-14 14:00N 36°51' W 076°18'0 0.0
2017-Nov-14 13:30N 36°51' W 076°18'0 0.0
2017-Nov-14 13:00N 36°51' W 076°18'0 0.0
2017-Nov-14 12:28N 36°51' W 076°18'0 0.0
2017-Nov-14 11:58N 36°51' W 076°18'0 0.0
2017-Nov-14 11:28N 36°51' W 076°18'0 0.0
2017-Nov-14 10:59N 36°51' W 076°18'0 0.0
2017-Nov-14 10:29N 36°51' W 076°18'0 0.0
2017-Nov-14 09:59N 36°51' W 076°18'0 0.0
2017-Nov-14 09:30N 36°51' W 076°18'0 0.0
2017-Nov-14 09:00N 36°51' W 076°18'0 0.0
2017-Nov-14 08:30N 36°51' W 076°18'0 0.0
2017-Nov-14 07:58N 36°51' W 076°18'0 0.0
2017-Nov-14 07:28N 36°51' W 076°18'0 0.0
2017-Nov-14 06:58N 36°51' W 076°18'0 0.0
2017-Nov-14 06:29N 36°51' W 076°18'0 0.0
2017-Nov-14 05:59N 36°51' W 076°18'0 0.0
2017-Nov-14 05:29N 36°51' W 076°18'0 0.0
2017-Nov-14 05:00N 36°51' W 076°18'0 0.0
2017-Nov-14 04:30N 36°51' W 076°18'0 0.0
2017-Nov-14 04:00N 36°51' W 076°18'0 0.0
2017-Nov-14 03:28N 36°51' W 076°18'0 0.0
2017-Nov-14 02:58N 36°51' W 076°18'0 0.0
2017-Nov-14 02:28N 36°51' W 076°18'0 0.0
2017-Nov-14 01:59N 36°51' W 076°18'0 0.0
2017-Nov-14 01:29N 36°51' W 076°18'0 0.0
2017-Nov-14 00:59N 36°51' W 076°18'0 0.0
2017-Nov-14 00:30N 36°51' W 076°18'0 0.0
2017-Nov-14 00:00N 36°51' W 076°18'0 0.0
2017-Nov-13 23:30N 36°51' W 076°18'0 0.0
2017-Nov-13 22:58N 36°51' W 076°18'0 0.0
2017-Nov-13 22:28N 36°51' W 076°18'0 0.0
2017-Nov-13 21:58N 36°51' W 076°18'0 0.0
2017-Nov-13 01:57N 36°51' W 076°18'0 0.0
2017-Nov-13 01:27N 36°51' W 076°18'0 0.0
2017-Nov-13 01:00N 36°51' W 076°18'0 0.0
2017-Nov-13 00:28N 36°51' W 076°18'0 0.0
2017-Nov-12 23:58N 36°51' W 076°18'0 0.0
2017-Nov-12 23:28N 36°51' W 076°18'0 0.0
2017-Nov-12 22:53N 36°51' W 076°18'0 0.0
2017-Nov-12 22:29N 36°51' W 076°18'0 0.0
2017-Nov-12 21:59N 36°51' W 076°18'0 0.0
2017-Nov-12 21:30N 36°51' W 076°18'0 0.0
2017-Nov-12 21:00N 36°51' W 076°18'0 0.0
2017-Nov-12 20:06N 36°51' W 076°18'0 0.1
2017-Nov-12 20:00N 36°51' W 076°18'0 0.0
2017-Nov-12 19:25N 36°51' W 076°18'0 0.0
2017-Nov-12 18:58N 36°51' W 076°18'0 0.0
2017-Nov-12 18:29N 36°51' W 076°18'0 0.0
2017-Nov-12 17:59N 36°51' W 076°18'0 0.0
2017-Nov-12 17:26N 36°51' W 076°18'0 0.0
2017-Nov-12 16:48N 36°51' W 076°18'0 0.0
2017-Nov-12 16:24N 36°51' W 076°18'0 0.0
2017-Nov-12 15:54N 36°51' W 076°18'0 0.0
2017-Nov-12 15:30N 36°51' W 076°18'0 0.0
2017-Nov-12 14:58N 36°51' W 076°18'0 0.0
2017-Nov-12 14:28N 36°51' W 076°18'0 0.0
2017-Nov-12 13:56N 36°51' W 076°18'0 0.0
2017-Nov-12 13:26N 36°51' W 076°18'0 0.0
2017-Nov-12 12:56N 36°51' W 076°18'0 0.0
2017-Nov-12 12:27N 36°51' W 076°18'0 0.0
2017-Nov-12 12:00N 36°51' W 076°18'0 0.0
2017-Nov-12 11:27N 36°51' W 076°18'0 0.0
2017-Nov-12 10:57N 36°51' W 076°18'0 0.0
2017-Nov-12 10:28N 36°51' W 076°18'0 0.0
2017-Nov-12 09:58N 36°51' W 076°18'0 0.0
2017-Nov-12 09:28N 36°51' W 076°18'0 0.0
2017-Nov-12 08:59N 36°51' W 076°18'0 0.0
2017-Nov-12 08:29N 36°51' W 076°18'0 0.0
2017-Nov-12 07:59N 36°51' W 076°18'0 0.0
2017-Nov-12 07:24N 36°51' W 076°18'0 0.0
2017-Nov-12 07:00N 36°51' W 076°18'0 0.0
2017-Nov-12 06:25N 36°51' W 076°18'0 0.0
2017-Nov-12 05:58N 36°51' W 076°18'0 0.0
2017-Nov-12 05:22N 36°51' W 076°18'0 0.0
2017-Nov-12 04:50N 36°51' W 076°18'0 0.0
2017-Nov-12 04:26N 36°51' W 076°18'0 0.0
2017-Nov-12 03:56N 36°51' W 076°18'0 0.0
2017-Nov-12 03:21N 36°51' W 076°18'0 0.0
2017-Nov-12 02:45N 36°51' W 076°18'0 0.0
2017-Nov-12 02:27N 36°51' W 076°18'0 0.0
2017-Nov-12 01:57N 36°51' W 076°18'0 0.0
2017-Nov-12 01:28N 36°51' W 076°18'0 0.0
2017-Nov-12 00:58N 36°51' W 076°18'0 0.0
2017-Nov-12 00:28N 36°51' W 076°18'0 0.0
2017-Nov-11 23:59N 36°51' W 076°18'0 0.0
2017-Nov-11 23:29N 36°51' W 076°18'0 0.0
2017-Nov-11 22:59N 36°51' W 076°18'0 0.0
2017-Nov-11 22:30N 36°51' W 076°18'0 0.0
2017-Nov-11 21:54N 36°51' W 076°18'0 0.0
2017-Nov-11 21:30N 36°51' W 076°18'0 0.0
2017-Nov-11 20:58N 36°51' W 076°18'0 0.0
2017-Nov-11 20:28N 36°51' W 076°18'0 0.0
2017-Nov-11 19:55N 36°51' W 076°18'0 0.0
2017-Nov-11 19:11N 36°51' W 076°18'0 0.0
2017-Nov-11 18:59N 36°51' W 076°18'0 0.0
2017-Nov-11 18:29N 36°51' W 076°18'0 0.0
2017-Nov-11 18:00N 36°51' W 076°18'0 0.0
2017-Nov-11 17:30N 36°51' W 076°18'0 0.0
2017-Nov-11 17:00N 36°51' W 076°18'0 0.0
2017-Nov-11 16:22N 36°51' W 076°18'0 0.0
2017-Nov-11 15:49N 36°51' W 076°18'0 0.0
2017-Nov-11 15:28N 36°51' W 076°18'0 0.0
2017-Nov-11 14:53N 36°51' W 076°18'0 0.0
2017-Nov-11 14:26N 36°51' W 076°18'0 0.0
2017-Nov-11 13:59N 36°51' W 076°18'0 0.0
2017-Nov-11 13:30N 36°51' W 076°18'0 0.0
2017-Nov-11 12:57N 36°51' W 076°18'0 0.0
2017-Nov-11 12:30N 36°51' W 076°18'0 0.0
2017-Nov-11 11:52N 36°51' W 076°18'0 0.0
2017-Nov-11 11:28N 36°51' W 076°18'0 0.0
2017-Nov-11 10:58N 36°51' W 076°18'0 0.0
2017-Nov-11 10:29N 36°51' W 076°18'0 0.0
2017-Nov-11 09:59N 36°51' W 076°18'0 0.0
2017-Nov-11 09:29N 36°51' W 076°18'0 0.0
2017-Nov-11 09:00N 36°51' W 076°18'0 0.0
2017-Nov-11 08:30N 36°51' W 076°18'0 0.0
2017-Nov-11 08:00N 36°51' W 076°18'0 0.0
2017-Nov-11 07:28N 36°51' W 076°18'0 0.0
2017-Nov-11 06:58N 36°51' W 076°18'0 0.0
2017-Nov-11 06:25N 36°51' W 076°18'0 0.0
2017-Nov-11 05:59N 36°51' W 076°18'0 0.0
2017-Nov-11 05:29N 36°51' W 076°18'0 0.0
2017-Nov-11 04:59N 36°51' W 076°18'0 0.0
2017-Nov-11 04:30N 36°51' W 076°18'0 0.0
2017-Nov-11 04:00N 36°51' W 076°18'0 0.0
2017-Nov-11 03:30N 36°51' W 076°18'0 0.0
2017-Nov-11 02:58N 36°51' W 076°18'0 0.0
2017-Nov-11 02:28N 36°51' W 076°18'0 0.0
2017-Nov-11 01:58N 36°51' W 076°18'0 0.0
2017-Nov-11 01:29N 36°51' W 076°18'0 0.0
2017-Nov-11 00:59N 36°51' W 076°18'0 0.0
2017-Nov-11 00:29N 36°51' W 076°18'0 0.0
2017-Nov-11 00:00N 36°51' W 076°18'0 0.0
2017-Nov-10 23:30N 36°51' W 076°18'0 0.0
2017-Nov-10 22:57N 36°51' W 076°18'0 0.0
2017-Nov-10 22:16N 36°51' W 076°18'0 0.0
2017-Nov-10 21:58N 36°51' W 076°18'0 0.0
2017-Nov-10 21:28N 36°51' W 076°18'0 0.0
2017-Nov-10 20:59N 36°51' W 076°18'0 0.0
2017-Nov-10 20:29N 36°51' W 076°18'0 0.0
2017-Nov-10 19:59N 36°51' W 076°18'0 0.0
2017-Nov-10 19:30N 36°51' W 076°18'0 0.0
2017-Nov-10 19:00N 36°51' W 076°18'0 0.0
2017-Nov-10 18:30N 36°51' W 076°18'0 0.0
2017-Nov-10 17:58N 36°51' W 076°18'0 0.0
2017-Nov-10 17:28N 36°51' W 076°18'0 0.0
2017-Nov-10 16:58N 36°51' W 076°18'0 0.0
2017-Nov-10 16:29N 36°51' W 076°18'0 0.0
2017-Nov-10 15:59N 36°51' W 076°18'0 0.0
2017-Nov-10 15:29N 36°51' W 076°18'0 0.0
2017-Nov-10 15:00N 36°51' W 076°18'0 0.0
2017-Nov-10 14:30N 36°51' W 076°18'0 0.1
2017-Nov-10 14:00N 36°51' W 076°18'0 0.1
2017-Nov-10 13:28N 36°51' W 076°18'0 0.0
2017-Nov-10 12:58N 36°51' W 076°18'0 0.0
2017-Nov-10 12:28N 36°51' W 076°18'0 0.0
2017-Nov-10 11:59N 36°51' W 076°18'0 0.0
2017-Nov-10 11:26N 36°51' W 076°18'0 0.0
2017-Nov-10 10:59N 36°51' W 076°18'0 0.0
2017-Nov-10 10:30N 36°51' W 076°18'0 0.0
2017-Nov-10 10:00N 36°51' W 076°18'0 0.0
2017-Nov-10 09:30N 36°51' W 076°18'0 0.0
2017-Nov-10 08:58N 36°51' W 076°18'0 0.0
2017-Nov-10 08:28N 36°51' W 076°18'0 0.0
2017-Nov-10 07:58N 36°51' W 076°18'0 0.0
2017-Nov-10 07:29N 36°51' W 076°18'0 0.0
2017-Nov-10 06:53N 36°51' W 076°18'0 0.0
2017-Nov-10 06:29N 36°51' W 076°18'0 0.0
2017-Nov-10 06:00N 36°51' W 076°18'0 0.0
2017-Nov-10 05:30N 36°51' W 076°18'0 0.0
2017-Nov-10 05:00N 36°51' W 076°18'0 0.0
2017-Nov-10 04:28N 36°51' W 076°18'0 0.0
2017-Nov-10 03:58N 36°51' W 076°18'0 0.0
2017-Nov-10 03:28N 36°51' W 076°18'0 0.0
2017-Nov-10 02:59N 36°51' W 076°18'0 0.0
2017-Nov-10 02:29N 36°51' W 076°18'0 0.0
2017-Nov-10 01:59N 36°51' W 076°18'0 0.0
2017-Nov-10 01:30N 36°51' W 076°18'0 0.0
2017-Nov-10 01:00N 36°51' W 076°18'0 0.0
2017-Nov-10 00:30N 36°51' W 076°18'0 0.0
2017-Nov-09 23:58N 36°51' W 076°18'0 0.0
2017-Nov-09 23:28N 36°51' W 076°18'0 0.0
2017-Nov-09 22:56N 36°51' W 076°18'0 0.0
2017-Nov-09 22:29N 36°51' W 076°18'0 0.0
2017-Nov-09 21:59N 36°51' W 076°18'0 0.0
2017-Nov-09 21:26N 36°51' W 076°18'0 0.0
2017-Nov-09 21:00N 36°51' W 076°18'0 0.0
2017-Nov-09 20:30N 36°51' W 076°18'0 0.0
2017-Nov-09 20:00N 36°51' W 076°18'0 0.0
2017-Nov-09 19:25N 36°51' W 076°18'0 0.0
2017-Nov-09 18:55N 36°51' W 076°18'0 0.0
2017-Nov-09 18:20N 36°51' W 076°18'0 0.0
2017-Nov-09 17:59N 36°51' W 076°18'0 0.0
2017-Nov-09 16:50N 36°51' W 076°18'0 0.0
2017-Nov-09 16:27N 36°51' W 076°18'0 0.0
2017-Nov-09 15:57N 36°51' W 076°18'0 0.0
2017-Nov-09 15:27N 36°51' W 076°18'0 0.1
2017-Nov-09 15:00N 36°51' W 076°18'0 0.9
2017-Nov-09 14:30N 36°51' W 076°18'2 4.9
2017-Nov-09 14:00N 36°53' W 076°20'3 6.8
2017-Nov-09 13:30N 36°56' W 076°20'3 5.2
2017-Nov-09 13:00N 36°56' W 076°24'0 0.0
2017-Nov-09 03:50N 36°56' W 076°24'0 0.0
2017-Nov-09 03:29N 36°56' W 076°24'0 0.0
2017-Nov-09 02:57N 36°56' W 076°24'0 0.0
2017-Nov-09 02:30N 36°56' W 076°24'0 0.0
2017-Nov-09 02:00N 36°56' W 076°24'0 0.0
2017-Nov-09 01:28N 36°56' W 076°24'0 0.0
2017-Nov-09 00:58N 36°56' W 076°24'0 0.1
2017-Nov-09 00:28N 36°56' W 076°24'0 0.0
2017-Nov-08 23:59N 36°56' W 076°24'0 0.0
2017-Nov-08 23:29N 36°56' W 076°24'0 0.0
2017-Nov-08 22:59N 36°56' W 076°24'0 0.0
2017-Nov-08 22:30N 36°56' W 076°24'0 0.0
2017-Nov-08 22:00N 36°56' W 076°24'0 0.0
2017-Nov-08 21:30N 36°56' W 076°24'0 0.1
2017-Nov-08 20:58N 36°56' W 076°24'0 0.0
2017-Nov-08 20:25N 36°56' W 076°24'0 0.0
2017-Nov-08 19:55N 36°56' W 076°24'0 0.0
2017-Nov-08 19:20N 36°56' W 076°24'0 0.0
2017-Nov-08 18:59N 36°56' W 076°24'0 0.0
2017-Nov-08 18:29N 36°56' W 076°24'0 0.0
2017-Nov-08 18:00N 36°56' W 076°24'0 0.0
2017-Nov-08 16:22N 36°56' W 076°24'0 0.0
2017-Nov-08 15:58N 36°56' W 076°24'0 0.0
2017-Nov-08 15:28N 36°56' W 076°24'0 0.0
2017-Nov-08 14:59N 36°56' W 076°24'0 0.0
2017-Nov-08 14:29N 36°56' W 076°24'0 0.0
2017-Nov-08 13:56N 36°56' W 076°24'0 0.1
2017-Nov-08 13:30N 36°56' W 076°24'0 0.0
2017-Nov-08 05:56N 36°56' W 076°24'0 0.0
2017-Nov-08 05:29N 36°56' W 076°24'0 0.0
2017-Nov-08 04:59N 36°56' W 076°24'0 0.0
2017-Nov-08 04:30N 36°56' W 076°24'0 0.0
2017-Nov-08 04:00N 36°56' W 076°24'0 0.0
2017-Nov-08 03:30N 36°56' W 076°24'0 0.0
2017-Nov-08 03:00N 36°56' W 076°24'0 0.0
2017-Nov-08 02:25N 36°56' W 076°24'0 0.1
2017-Nov-08 01:58N 36°56' W 076°24'0 0.0
2017-Nov-08 01:26N 36°56' W 076°24'0 0.0
2017-Nov-08 00:59N 36°56' W 076°24'0 0.0
2017-Nov-08 00:29N 36°56' W 076°24'0 0.0
2017-Nov-07 23:59N 36°56' W 076°24'0 0.0
2017-Nov-07 23:30N 36°56' W 076°24'  

Dump ship's entire track history